Englewood Beach, Florida
Current Conditions -  °F | °C
As of 12:15 PM on Sunday 23 Nov 2014 (Local Time) from KVNC Reporting Station
Clear Clear  
Wind Chill: 81°   Ceiling: Unl
Heat Index: 85°   Visibility: 10mi
Dew Point: 72°   Wind: 22mph
Humidity: 74%   Direction: 170°S
Pressure: 29.97"   Gusts: 31mph
Location:  26.9866°N, 82.345°W
Report Text: KVNC 231715Z AUTO 17019G27KT 10SM CLR 27/22 A2997 RMK AO2 TSNO
Loading
Personal Weather Stations






























Interactive Weather Map New forecast layout! Learn more

10-Day Weather Forecast

Advertisements
Track Severe Weather on mobile